createdAt,value
2023-04-24T00:00:18.744Z,60.96
2023-04-24T00:02:48.978Z,61.04
2023-04-24T00:05:18.252Z,61.00
2023-04-24T00:07:47.128Z,60.87
2023-04-24T00:10:15.222Z,60.69
2023-04-24T00:12:43.329Z,60.75
2023-04-24T00:15:12.614Z,60.14
2023-04-24T00:17:41.114Z,60.08
2023-04-24T00:20:12.777Z,60.00
2023-04-24T00:22:40.936Z,59.89
2023-04-24T00:25:10.249Z,59.69
2023-04-24T00:27:39.700Z,59.81
2023-04-24T00:30:09.483Z,59.87
2023-04-24T00:32:37.646Z,60.48
2023-04-24T00:35:07.865Z,60.29
2023-04-24T00:37:37.701Z,60.07
2023-04-24T00:40:13.559Z,59.72
2023-04-24T00:42:42.531Z,59.61
2023-04-24T00:45:14.947Z,59.76
2023-04-24T00:47:44.298Z,59.64
2023-04-24T00:50:19.033Z,60.19
2023-04-24T00:52:48.437Z,59.88
2023-04-24T00:55:16.889Z,59.70
2023-04-24T00:57:45.813Z,59.86
2023-04-24T01:00:15.602Z,60.18
2023-04-24T01:02:46.623Z,60.05
2023-04-24T01:05:18.327Z,59.97
2023-04-24T01:07:49.977Z,59.87
2023-04-24T01:10:19.148Z,60.38
2023-04-24T01:12:48.463Z,60.44
2023-04-24T01:15:16.671Z,60.31
2023-04-24T01:17:44.765Z,60.35
2023-04-24T01:20:12.967Z,60.32
2023-04-24T01:22:44.487Z,60.80
2023-04-24T01:25:12.622Z,60.67
2023-04-24T01:27:40.791Z,60.48
2023-04-24T01:30:10.936Z,60.55
2023-04-24T01:32:40.178Z,60.39
2023-04-24T01:35:10.089Z,60.81
2023-04-24T01:37:39.023Z,61.02
2023-04-24T01:40:10.246Z,60.86
2023-04-24T01:42:38.558Z,60.70
2023-04-24T01:45:08.502Z,60.94
2023-04-24T01:47:36.993Z,61.29
2023-04-24T01:50:06.462Z,61.38
2023-04-24T01:52:36.153Z,61.79
2023-04-24T01:55:05.240Z,61.19
2023-04-24T01:57:35.882Z,61.76
2023-04-24T02:00:06.682Z,61.58
2023-04-24T02:02:42.382Z,61.40
2023-04-24T02:05:12.000Z,61.67
2023-04-24T02:07:40.841Z,61.78
2023-04-24T02:10:10.386Z,61.66
2023-04-24T02:12:39.849Z,61.95
2023-04-24T02:15:08.705Z,61.86
2023-04-24T02:17:39.249Z,62.12
2023-04-24T02:20:09.417Z,62.20
2023-04-24T02:22:37.499Z,62.23
2023-04-24T02:25:06.585Z,62.11
2023-04-24T02:27:34.640Z,62.87
2023-04-24T02:30:04.730Z,63.98
2023-04-24T02:32:32.881Z,64.53
2023-04-24T02:35:01.028Z,64.51
2023-04-24T02:37:29.147Z,64.67
2023-04-24T02:39:57.268Z,65.06
2023-04-24T02:42:25.329Z,65.25
2023-04-24T02:44:53.383Z,65.36
2023-04-24T02:47:23.015Z,65.48
2023-04-24T02:49:51.142Z,65.69
2023-04-24T02:52:19.257Z,65.86
2023-04-24T02:54:47.366Z,66.00
2023-04-24T02:57:16.079Z,65.39
2023-04-24T02:59:44.843Z,65.78
2023-04-24T03:02:13.065Z,65.48
2023-04-24T03:04:44.010Z,65.97
2023-04-24T03:07:12.414Z,66.01
2023-04-24T03:09:40.421Z,65.59
2023-04-24T03:12:08.598Z,65.98
2023-04-24T03:14:36.653Z,65.98
2023-04-24T03:17:04.738Z,66.06
2023-04-24T03:19:32.892Z,65.96
2023-04-24T03:22:10.051Z,66.00
2023-04-24T03:24:38.848Z,66.05
2023-04-24T03:27:07.282Z,66.26
2023-04-24T03:29:49.427Z,66.49
2023-04-24T03:32:18.753Z,66.27
2023-04-24T03:34:48.491Z,65.70
2023-04-24T03:37:18.524Z,66.02
2023-04-24T03:39:54.187Z,66.09
2023-04-24T03:42:26.061Z,66.27
2023-04-24T03:44:57.379Z,66.30
2023-04-24T03:47:31.051Z,66.19
2023-04-24T03:50:02.786Z,66.14
2023-04-24T03:52:33.996Z,66.32
2023-04-24T03:55:02.405Z,66.28
2023-04-24T03:57:32.712Z,66.62
2023-04-24T04:00:14.092Z,66.78
2023-04-24T04:02:48.830Z,66.56
2023-04-24T04:05:17.241Z,67.48
2023-04-24T04:07:46.678Z,67.85
2023-04-24T04:10:15.285Z,67.88
2023-04-24T04:12:43.420Z,67.28
2023-04-24T04:15:12.518Z,65.42
2023-04-24T04:17:40.733Z,65.24
2023-04-24T04:20:14.289Z,65.47
2023-04-24T04:22:44.443Z,65.67
2023-04-24T04:25:20.253Z,65.50
2023-04-24T04:27:49.508Z,65.44
2023-04-24T04:30:19.095Z,65.25
2023-04-24T04:32:52.995Z,65.24
2023-04-24T04:35:22.825Z,64.96
2023-04-24T04:37:52.379Z,65.15
2023-04-24T04:40:43.515Z,65.50
2023-04-24T04:43:14.228Z,65.54
2023-04-24T04:45:49.211Z,65.58
2023-04-24T04:48:36.048Z,65.87
2023-04-24T04:51:07.272Z,65.44
2023-04-24T04:53:35.992Z,65.27
2023-04-24T04:56:05.819Z,65.21
2023-04-24T04:58:46.015Z,65.62
2023-04-24T05:01:17.309Z,65.25
2023-04-24T05:03:48.401Z,65.11
2023-04-24T05:06:18.325Z,65.33
2023-04-24T05:08:47.515Z,64.68
2023-04-24T05:11:34.120Z,65.00
2023-04-24T05:14:03.684Z,65.07
2023-04-24T05:16:38.015Z,65.51
2023-04-24T05:19:07.614Z,65.34
2023-04-24T05:21:40.282Z,65.28
2023-04-24T05:24:09.944Z,65.93
2023-04-24T05:27:05.596Z,66.03
2023-04-24T05:29:41.244Z,65.80
2023-04-24T05:32:10.391Z,66.19
2023-04-24T05:34:38.478Z,65.58
2023-04-24T05:37:09.229Z,66.03
2023-04-24T05:39:37.468Z,65.74
2023-04-24T05:42:07.238Z,66.03
2023-04-24T05:44:35.540Z,65.89
2023-04-24T05:47:03.800Z,65.58
2023-04-24T05:49:31.916Z,65.95
2023-04-24T05:52:00.155Z,65.14
2023-04-24T05:54:28.219Z,64.96
2023-04-24T05:56:57.889Z,64.88
2023-04-24T05:59:43.005Z,64.56
2023-04-24T06:02:12.325Z,64.86
2023-04-24T06:04:41.205Z,65.22
2023-04-24T06:07:09.725Z,65.21
2023-04-24T06:09:37.926Z,65.64
2023-04-24T06:12:08.353Z,65.62
2023-04-24T06:14:52.254Z,65.38
2023-04-24T06:17:25.112Z,65.79
2023-04-24T06:19:53.785Z,65.01
2023-04-24T06:22:24.038Z,64.80
2023-04-24T06:24:52.204Z,64.11
2023-04-24T06:27:20.357Z,64.72
2023-04-24T06:29:53.633Z,63.90
2023-04-24T06:32:24.203Z,64.34
2023-04-24T06:34:54.343Z,63.71
2023-04-24T06:37:22.972Z,63.27
2023-04-24T06:39:51.120Z,64.32
2023-04-24T06:42:26.234Z,64.49
2023-04-24T06:44:54.334Z,63.79
2023-04-24T06:47:23.906Z,62.57
2023-04-24T06:49:53.510Z,62.24
2023-04-24T06:52:21.830Z,61.10
2023-04-24T06:54:49.898Z,59.66
2023-04-24T06:57:18.096Z,60.02
2023-04-24T06:59:46.234Z,59.17
2023-04-24T07:02:14.668Z,60.27
2023-04-24T07:04:44.242Z,59.11
2023-04-24T07:07:15.270Z,58.69
2023-04-24T07:09:43.845Z,60.16
2023-04-24T07:12:12.454Z,59.71
2023-04-24T07:14:40.593Z,60.50
2023-04-24T07:17:08.808Z,59.05
2023-04-24T07:19:37.351Z,57.61
2023-04-24T07:22:06.987Z,57.65
2023-04-24T07:24:35.245Z,57.03
2023-04-24T07:27:03.390Z,57.07
2023-04-24T07:29:31.519Z,56.43
2023-04-24T07:32:00.912Z,56.17
2023-04-24T07:34:30.270Z,55.00
2023-04-24T07:36:58.431Z,55.24
2023-04-24T07:39:28.699Z,55.08
2023-04-24T07:41:56.781Z,54.22
2023-04-24T07:44:24.890Z,54.33
2023-04-24T07:46:53.302Z,54.48
2023-04-24T07:49:21.516Z,54.11
2023-04-24T07:51:49.668Z,54.05
2023-04-24T07:54:17.794Z,54.03
2023-04-24T07:56:47.293Z,53.80
2023-04-24T07:59:15.375Z,53.37
2023-04-24T08:01:43.487Z,53.45
2023-04-24T08:04:11.834Z,53.73
2023-04-24T08:06:40.124Z,53.70
2023-04-24T08:09:08.267Z,52.75
2023-04-24T08:11:36.419Z,52.55
2023-04-24T08:14:06.202Z,53.20
2023-04-24T08:16:35.319Z,53.09
2023-04-24T08:19:03.597Z,52.74
2023-04-24T08:21:31.708Z,53.49
2023-04-24T08:24:00.058Z,53.58
2023-04-24T08:26:28.601Z,53.44
2023-04-24T08:28:56.863Z,52.99
2023-04-24T08:31:27.227Z,52.57
2023-04-24T08:33:55.512Z,54.16
2023-04-24T08:36:28.248Z,54.71
2023-04-24T08:39:01.328Z,55.73
2023-04-24T08:41:30.167Z,55.17
2023-04-24T08:43:59.777Z,56.31
2023-04-24T08:46:29.840Z,54.88
2023-04-24T08:48:58.871Z,53.98
2023-04-24T08:51:29.548Z,55.50
2023-04-24T08:53:58.704Z,53.83
2023-04-24T08:56:28.189Z,53.00
2023-04-24T08:58:56.606Z,53.78
2023-04-24T09:01:29.907Z,54.69
2023-04-24T09:03:59.006Z,56.87
2023-04-24T09:06:28.344Z,56.02
2023-04-24T09:08:57.501Z,57.91
2023-04-24T09:11:27.041Z,59.88
2023-04-24T09:13:56.368Z,58.38
2023-04-24T09:16:25.435Z,58.53
2023-04-24T09:18:55.834Z,56.82
2023-04-24T09:21:24.751Z,56.96
2023-04-24T09:24:01.979Z,55.00
2023-04-24T09:26:33.896Z,54.73
2023-04-24T09:29:02.738Z,54.71
2023-04-24T09:31:31.883Z,54.85
2023-04-24T09:34:08.253Z,54.93
2023-04-24T09:36:39.137Z,54.77
2023-04-24T09:39:11.712Z,53.48
2023-04-24T09:41:47.092Z,54.09
2023-04-24T09:44:17.309Z,53.80
2023-04-24T09:46:50.920Z,53.06
2023-04-24T09:49:26.218Z,53.92
2023-04-24T09:52:04.202Z,53.89
2023-04-24T09:54:32.412Z,53.72
2023-04-24T09:57:01.336Z,54.25
2023-04-24T09:59:29.534Z,54.10
2023-04-24T10:01:59.677Z,53.11
2023-04-24T10:04:31.169Z,51.85
2023-04-24T10:07:00.852Z,50.95
2023-04-24T10:09:29.249Z,49.86
2023-04-24T10:11:57.551Z,51.09
2023-04-24T10:14:27.228Z,49.31
2023-04-24T10:16:58.893Z,46.27
2023-04-24T10:19:31.354Z,48.01
2023-04-24T10:22:00.429Z,48.04
2023-04-24T10:24:28.776Z,47.50
2023-04-24T10:26:57.858Z,48.90
2023-04-24T10:29:26.437Z,47.98
2023-04-24T10:31:54.718Z,49.21
2023-04-24T10:34:23.937Z,47.99
2023-04-24T10:36:58.126Z,47.61
2023-04-24T10:39:27.941Z,48.18
2023-04-24T10:41:58.502Z,49.61
2023-04-24T10:44:27.738Z,48.99
2023-04-24T10:47:00.384Z,48.33
2023-04-24T10:49:33.437Z,49.14
2023-04-24T10:52:06.471Z,48.74
2023-04-24T10:54:42.782Z,49.43
2023-04-24T10:57:33.660Z,48.73
2023-04-24T11:00:22.326Z,50.00
2023-04-24T11:02:51.709Z,49.58
2023-04-24T11:05:21.455Z,49.73
2023-04-24T11:08:16.983Z,49.52
2023-04-24T11:10:47.411Z,50.97
2023-04-24T11:13:18.387Z,49.81
2023-04-24T11:15:46.546Z,50.57
2023-04-24T11:18:17.714Z,49.85
2023-04-24T11:20:46.896Z,49.73
2023-04-24T11:23:17.020Z,49.26
2023-04-24T11:25:45.311Z,49.36
2023-04-24T11:28:18.370Z,49.46
2023-04-24T11:30:46.526Z,49.13
2023-04-24T11:33:23.030Z,53.00
2023-04-24T11:35:53.335Z,52.77
2023-04-24T11:38:24.984Z,53.63
2023-04-24T11:40:54.327Z,54.35
2023-04-24T11:43:23.169Z,55.07
2023-04-24T11:45:51.833Z,54.68
2023-04-24T11:48:23.860Z,52.55
2023-04-24T11:50:52.490Z,52.96
2023-04-24T11:53:22.996Z,50.55
2023-04-24T11:55:51.217Z,49.12
2023-04-24T11:58:23.910Z,48.74
2023-04-24T12:01:00.478Z,49.20
2023-04-24T12:03:29.065Z,48.49
2023-04-24T12:06:08.694Z,48.63
2023-04-24T12:08:39.151Z,49.17
2023-04-24T12:11:09.471Z,48.93
2023-04-24T12:13:38.079Z,48.68
2023-04-24T12:16:31.825Z,48.97
2023-04-24T12:19:07.359Z,48.01
2023-04-24T12:21:35.980Z,48.77
2023-04-24T12:24:08.852Z,48.97
2023-04-24T12:26:36.941Z,48.52
2023-04-24T12:29:06.227Z,48.99
2023-04-24T12:31:34.871Z,49.26
2023-04-24T12:34:04.246Z,48.01
2023-04-24T12:36:32.429Z,48.12
2023-04-24T12:39:00.729Z,48.45
2023-04-24T12:41:33.548Z,49.18
2023-04-24T12:44:01.646Z,51.77
2023-04-24T12:46:29.742Z,55.21
2023-04-24T12:48:59.506Z,56.73
2023-04-24T12:51:27.980Z,58.23
2023-04-24T12:53:56.692Z,59.09
2023-04-24T12:56:25.321Z,60.11
2023-04-24T12:58:54.763Z,59.16
2023-04-24T13:01:25.148Z,58.16
2023-04-24T13:03:53.308Z,57.15
2023-04-24T13:06:22.192Z,57.38
2023-04-24T13:08:50.434Z,57.21
2023-04-24T13:11:18.526Z,58.12
2023-04-24T13:13:46.719Z,56.98
2023-04-24T13:16:16.302Z,55.68
2023-04-24T13:18:44.484Z,55.39
2023-04-24T13:21:12.575Z,54.38
2023-04-24T13:23:42.467Z,52.43
2023-04-24T13:26:10.848Z,52.53
2023-04-24T13:28:39.345Z,52.67
2023-04-24T13:31:07.825Z,54.05
2023-04-24T13:33:37.674Z,56.83
2023-04-24T13:36:06.078Z,57.25
2023-04-24T13:38:34.443Z,58.50
2023-04-24T13:41:02.845Z,59.04
2023-04-24T13:43:30.962Z,58.93
2023-04-24T13:46:00.375Z,58.18
2023-04-24T13:48:28.586Z,58.31
2023-04-24T13:50:58.120Z,57.43
2023-04-24T13:53:26.295Z,58.13
2023-04-24T13:55:54.414Z,57.56
2023-04-24T13:58:22.657Z,55.68
2023-04-24T14:00:50.706Z,55.02
2023-04-24T14:03:18.922Z,54.32
2023-04-24T14:05:47.092Z,54.77
2023-04-24T14:08:16.581Z,54.11
2023-04-24T14:10:45.201Z,54.59
2023-04-24T14:13:13.512Z,55.18
2023-04-24T14:15:41.580Z,53.60
2023-04-24T14:18:09.977Z,54.26
2023-04-24T14:20:38.268Z,52.62
2023-04-24T14:23:06.509Z,52.33
2023-04-24T14:25:36.227Z,52.63
2023-04-24T14:28:04.510Z,52.60
2023-04-24T14:30:32.849Z,52.79
2023-04-24T14:33:01.017Z,52.49
2023-04-24T14:35:30.795Z,52.90
2023-04-24T14:37:59.683Z,52.78
2023-04-24T14:40:48.728Z,52.43
2023-04-24T14:43:17.367Z,53.00
2023-04-24T14:45:45.458Z,51.96
2023-04-24T14:48:13.900Z,52.18
2023-04-24T14:50:42.173Z,50.96
2023-04-24T14:53:10.430Z,50.65
2023-04-24T14:55:38.631Z,50.99
2023-04-24T14:58:06.712Z,51.51
2023-04-24T15:00:36.320Z,51.52
2023-04-24T15:03:04.693Z,52.12
2023-04-24T15:05:33.365Z,52.15
2023-04-24T15:08:01.639Z,52.79
2023-04-24T15:10:30.666Z,52.81
2023-04-24T15:12:58.758Z,52.41
2023-04-24T15:15:27.408Z,53.60
2023-04-24T15:17:57.342Z,55.23
2023-04-24T15:20:25.498Z,57.16
2023-04-24T15:22:53.618Z,58.52
2023-04-24T15:25:21.740Z,58.64
2023-04-24T15:27:50.152Z,58.78
2023-04-24T15:30:18.274Z,59.09
2023-04-24T15:32:46.587Z,59.52
2023-04-24T15:35:17.153Z,58.88
2023-04-24T15:37:45.762Z,57.63
2023-04-24T15:40:16.990Z,57.50
2023-04-24T15:42:45.456Z,57.77
2023-04-24T15:45:13.798Z,59.01
2023-04-24T15:47:42.131Z,57.28
2023-04-24T15:50:14.185Z,57.87
2023-04-24T15:52:44.720Z,57.33
2023-04-24T15:55:13.230Z,56.22
2023-04-24T15:57:41.417Z,56.80
2023-04-24T16:00:11.207Z,55.88
2023-04-24T16:02:42.774Z,55.78
2023-04-24T16:05:11.739Z,55.11
2023-04-24T16:07:41.071Z,54.16
2023-04-24T16:10:12.084Z,53.02
2023-04-24T16:12:40.773Z,52.46
2023-04-24T16:15:09.702Z,53.04
2023-04-24T16:17:38.054Z,53.47
2023-04-24T16:20:07.873Z,52.64
2023-04-24T16:22:36.032Z,52.81
2023-04-24T16:25:04.332Z,52.46
2023-04-24T16:27:34.090Z,52.38
2023-04-24T16:30:02.524Z,52.16
2023-04-24T16:32:30.870Z,50.99
2023-04-24T16:34:58.989Z,51.47
2023-04-24T16:37:27.198Z,51.30
2023-04-24T16:39:56.065Z,51.19
2023-04-24T16:42:24.480Z,51.41
2023-04-24T16:44:53.901Z,50.81
2023-04-24T16:47:22.714Z,50.22
2023-04-24T16:49:50.897Z,49.65
2023-04-24T16:52:18.946Z,49.44
2023-04-24T16:54:47.164Z,49.05
2023-04-24T16:57:15.691Z,49.68
2023-04-24T16:59:43.785Z,49.47
2023-04-24T17:02:13.230Z,49.14
2023-04-24T17:04:42.071Z,49.54
2023-04-24T17:07:10.283Z,49.03
2023-04-24T17:09:38.452Z,49.40
2023-04-24T17:12:07.492Z,49.57
2023-04-24T17:14:36.028Z,49.31
2023-04-24T17:17:05.502Z,49.98
2023-04-24T17:19:35.019Z,49.69
2023-04-24T17:22:06.103Z,49.83
2023-04-24T17:24:34.702Z,50.40
2023-04-24T17:27:13.928Z,50.11
2023-04-24T17:29:43.734Z,50.25
2023-04-24T17:32:12.007Z,50.70
2023-04-24T17:34:41.470Z,50.53
2023-04-24T17:37:10.025Z,50.80
2023-04-24T17:39:39.021Z,51.37
2023-04-24T17:42:07.987Z,50.86
2023-04-24T17:44:37.038Z,51.59
2023-04-24T17:47:05.186Z,51.25
2023-04-24T17:49:34.154Z,51.93
2023-04-24T17:52:03.720Z,51.69
2023-04-24T17:54:31.938Z,51.37
2023-04-24T17:57:00.129Z,51.82
2023-04-24T17:59:28.476Z,51.93
2023-04-24T18:01:57.702Z,52.03
2023-04-24T18:04:27.012Z,51.99
2023-04-24T18:06:56.150Z,52.65
2023-04-24T18:09:26.011Z,52.26
2023-04-24T18:11:54.741Z,52.33
2023-04-24T18:14:23.211Z,52.59
2023-04-24T18:16:51.376Z,52.45
2023-04-24T18:19:19.559Z,52.54
2023-04-24T18:21:47.784Z,52.69
2023-04-24T18:24:15.951Z,52.37
2023-04-24T18:26:45.358Z,52.60
2023-04-24T18:29:13.470Z,53.05
2023-04-24T18:31:42.063Z,53.24
2023-04-24T18:34:10.574Z,52.25
2023-04-24T18:36:38.608Z,52.95
2023-04-24T18:39:06.618Z,53.53
2023-04-24T18:41:35.363Z,53.53
2023-04-24T18:44:04.856Z,53.66
2023-04-24T18:46:37.889Z,53.72
2023-04-24T18:49:06.201Z,54.02
2023-04-24T18:51:46.700Z,54.37
2023-04-24T18:54:21.112Z,54.25
2023-04-24T18:56:49.219Z,54.72
2023-04-24T18:59:19.143Z,54.46
2023-04-24T19:01:47.488Z,54.91
2023-04-24T19:04:16.045Z,54.92
2023-04-24T19:06:44.155Z,54.55
2023-04-24T19:09:13.042Z,54.40
2023-04-24T19:11:41.764Z,54.83
2023-04-24T19:14:10.181Z,54.57
2023-04-24T19:16:39.637Z,54.77
2023-04-24T19:19:07.738Z,54.71
2023-04-24T19:21:36.469Z,54.76
2023-04-24T19:24:05.031Z,54.46
2023-04-24T19:26:33.096Z,54.73
2023-04-24T19:29:01.660Z,54.47
2023-04-24T19:31:29.865Z,54.99
2023-04-24T19:33:59.293Z,55.22
2023-04-24T19:36:28.223Z,54.61
2023-04-24T19:38:56.467Z,54.73
2023-04-24T19:41:24.549Z,55.30
2023-04-24T19:43:52.580Z,55.20
2023-04-24T19:46:21.004Z,55.83
2023-04-24T19:48:49.397Z,55.45
2023-04-24T19:51:19.236Z,54.89
2023-04-24T19:53:47.389Z,54.80
2023-04-24T19:56:15.495Z,55.49
2023-04-24T19:58:43.573Z,54.96
2023-04-24T20:01:11.877Z,55.22
2023-04-24T20:03:40.098Z,54.62
2023-04-24T20:06:09.201Z,55.18
2023-04-24T20:08:39.583Z,55.68
2023-04-24T20:11:07.715Z,55.32
2023-04-24T20:13:35.897Z,55.42
2023-04-24T20:16:04.436Z,55.24
2023-04-24T20:18:32.601Z,55.63
2023-04-24T20:21:00.841Z,55.70
2023-04-24T20:23:28.950Z,55.47
2023-04-24T20:25:58.875Z,56.04
2023-04-24T20:28:27.391Z,56.17
2023-04-24T20:30:55.585Z,55.86
2023-04-24T20:33:23.983Z,55.54
2023-04-24T20:35:52.388Z,55.52
2023-04-24T20:38:22.359Z,55.39
2023-04-24T20:40:57.749Z,55.40
2023-04-24T20:43:29.129Z,55.92
2023-04-24T20:45:58.473Z,56.17
2023-04-24T20:48:27.108Z,55.33
2023-04-24T20:50:55.941Z,55.77
2023-04-24T20:53:25.083Z,55.32
2023-04-24T20:55:53.470Z,55.58
2023-04-24T20:58:22.202Z,55.54
2023-04-24T21:00:52.729Z,55.80
2023-04-24T21:03:21.448Z,55.95
2023-04-24T21:05:49.835Z,55.81
2023-04-24T21:08:18.140Z,55.72
2023-04-24T21:10:46.417Z,55.81
2023-04-24T21:13:14.691Z,56.25
2023-04-24T21:15:42.753Z,55.90
2023-04-24T21:18:12.412Z,55.69
2023-04-24T21:20:40.705Z,55.74
2023-04-24T21:23:08.791Z,55.84
2023-04-24T21:25:38.204Z,56.14
2023-04-24T21:28:06.646Z,55.62
2023-04-24T21:30:34.991Z,56.35
2023-04-24T21:33:03.114Z,56.36
2023-04-24T21:35:33.126Z,55.57
2023-04-24T21:38:01.174Z,56.33
2023-04-24T21:40:29.330Z,56.34
2023-04-24T21:42:57.473Z,56.32
2023-04-24T21:45:25.574Z,56.16
2023-04-24T21:47:53.674Z,55.83
2023-04-24T21:50:21.991Z,56.72
2023-04-24T21:52:51.364Z,56.01
2023-04-24T21:55:19.446Z,56.67
2023-04-24T21:57:47.573Z,57.05
2023-04-24T22:00:17.250Z,56.28
2023-04-24T22:02:45.565Z,56.84
2023-04-24T22:05:15.792Z,56.51
2023-04-24T22:07:46.689Z,56.85
2023-04-24T22:10:18.567Z,56.94
2023-04-24T22:12:46.688Z,57.56
2023-04-24T22:15:14.805Z,57.12
2023-04-24T22:17:43.534Z,57.44
2023-04-24T22:20:12.900Z,57.86
2023-04-24T22:22:41.029Z,57.22
2023-04-24T22:25:10.349Z,56.76
2023-04-24T22:27:39.693Z,56.66
2023-04-24T22:30:10.216Z,56.65
2023-04-24T22:32:38.696Z,56.89
2023-04-24T22:35:08.095Z,57.29
2023-04-24T22:37:36.405Z,57.08
2023-04-24T22:40:13.792Z,56.16
2023-04-24T22:42:43.389Z,56.17
2023-04-24T22:45:13.381Z,56.44
2023-04-24T22:47:41.643Z,56.59
2023-04-24T22:50:10.845Z,56.36
2023-04-24T22:52:40.966Z,56.43
2023-04-24T22:55:10.857Z,56.47
2023-04-24T22:57:39.201Z,57.16
2023-04-24T23:00:12.743Z,57.02
2023-04-24T23:02:42.411Z,57.58
2023-04-24T23:05:11.826Z,57.24
2023-04-24T23:07:39.997Z,57.70
2023-04-24T23:10:09.133Z,57.71
2023-04-24T23:12:37.234Z,57.59
2023-04-24T23:15:08.585Z,58.30
2023-04-24T23:17:36.695Z,57.21
2023-04-24T23:20:05.687Z,57.69
2023-04-24T23:22:33.773Z,57.48
2023-04-24T23:25:02.435Z,57.54
2023-04-24T23:27:30.542Z,57.95
2023-04-24T23:29:58.560Z,57.71
2023-04-24T23:32:28.042Z,57.12
2023-04-24T23:34:56.440Z,57.03
2023-04-24T23:37:24.695Z,57.15
2023-04-24T23:39:52.844Z,56.70
2023-04-24T23:42:21.001Z,56.91
2023-04-24T23:44:49.102Z,57.21
2023-04-24T23:47:17.304Z,57.46
2023-04-24T23:49:46.671Z,57.58
2023-04-24T23:52:14.789Z,56.75
2023-04-24T23:54:42.902Z,57.69
2023-04-24T23:57:11.144Z,57.62
2023-04-24T23:59:39.218Z,57.22
